createdAt,value
2022-11-26T00:00:26.721Z,60.87
2022-11-26T00:03:29.111Z,46.90
2022-11-26T00:06:42.725Z,44.38
2022-11-26T00:09:45.096Z,43.70
2022-11-26T00:12:48.094Z,65.95
2022-11-26T00:15:50.759Z,47.60
2022-11-26T00:18:53.049Z,44.70
2022-11-26T00:21:55.340Z,35.28
2022-11-26T00:24:57.914Z,37.08
2022-11-26T00:28:00.288Z,37.65
2022-11-26T00:31:05.229Z,38.03
2022-11-26T00:34:07.486Z,43.40
2022-11-26T00:37:21.876Z,42.75
2022-11-26T00:40:27.386Z,33.00
2022-11-26T00:43:29.689Z,41.47
2022-11-26T00:46:31.963Z,36.40
2022-11-26T00:49:34.235Z,40.83
2022-11-26T00:52:36.506Z,36.85
2022-11-26T00:55:45.117Z,37.40
2022-11-26T00:58:49.116Z,38.30
2022-11-26T01:01:51.800Z,39.60
2022-11-26T01:04:54.143Z,42.73
2022-11-26T01:08:00.095Z,45.08
2022-11-26T01:11:04.472Z,45.88
2022-11-26T01:14:07.030Z,43.20
2022-11-26T01:17:11.562Z,52.43
2022-11-26T01:20:27.536Z,45.70
2022-11-26T01:23:29.852Z,42.45
2022-11-26T01:26:34.844Z,51.72
2022-11-26T01:29:37.093Z,47.47
2022-11-26T01:32:39.514Z,45.83
2022-11-26T01:35:41.845Z,38.17
2022-11-26T01:38:44.111Z,46.00
2022-11-26T01:42:05.371Z,48.13
2022-11-26T01:45:18.913Z,50.30
2022-11-26T01:48:28.521Z,52.23
2022-11-26T01:51:30.940Z,54.40
2022-11-26T01:54:35.559Z,51.75
2022-11-26T01:57:38.884Z,55.28
2022-11-26T02:00:41.373Z,55.38
2022-11-26T02:03:58.661Z,57.93
2022-11-26T02:07:01.129Z,53.30
2022-11-26T02:10:04.167Z,73.72
2022-11-26T02:13:06.529Z,64.43
2022-11-26T02:16:39.940Z,69.55
2022-11-26T02:20:11.359Z,62.30
2022-11-26T02:23:32.363Z,53.80
2022-11-26T02:26:55.026Z,52.08
2022-11-26T02:30:03.928Z,68.20
2022-11-26T02:33:19.417Z,54.50
2022-11-26T02:36:25.727Z,62.53
2022-11-26T02:39:30.028Z,55.50
2022-11-26T02:42:34.537Z,58.53
2022-11-26T02:45:43.238Z,50.85
2022-11-26T02:48:48.058Z,53.67
2022-11-26T02:51:55.202Z,53.47
2022-11-26T02:54:57.578Z,51.90
2022-11-26T02:58:00.350Z,57.63
2022-11-26T03:01:06.933Z,45.65
2022-11-26T03:04:17.964Z,53.78
2022-11-26T03:07:20.546Z,58.13
2022-11-26T03:10:29.768Z,74.53
2022-11-26T03:13:32.554Z,54.33
2022-11-26T03:16:35.075Z,59.30
2022-11-26T03:19:37.595Z,46.40
2022-11-26T03:22:39.939Z,64.97
2022-11-26T03:25:42.237Z,53.50
2022-11-26T03:28:44.528Z,58.30
2022-11-26T03:31:46.966Z,52.60
2022-11-26T03:34:49.269Z,56.05
2022-11-26T03:37:51.659Z,52.63
2022-11-26T03:41:02.254Z,35.83
2022-11-26T03:44:04.906Z,62.88
2022-11-26T03:47:07.192Z,61.30
2022-11-26T03:50:09.776Z,34.17
2022-11-26T03:53:12.396Z,34.13
2022-11-26T03:56:15.589Z,39.27
2022-11-26T03:59:17.865Z,46.95
2022-11-26T04:02:20.178Z,41.53
2022-11-26T04:05:22.546Z,37.92
2022-11-26T04:08:24.823Z,52.23
2022-11-26T04:11:27.248Z,45.60
2022-11-26T04:14:29.565Z,59.40
2022-11-26T04:17:31.860Z,39.83
2022-11-26T04:20:34.116Z,46.08
2022-11-26T04:23:36.768Z,46.00
2022-11-26T04:26:39.082Z,37.33
2022-11-26T04:29:41.302Z,45.40
2022-11-26T04:32:43.675Z,37.65
2022-11-26T04:35:46.060Z,46.17
2022-11-26T04:38:48.880Z,36.80
2022-11-26T04:41:51.321Z,36.20
2022-11-26T04:44:53.640Z,38.72
2022-11-26T04:47:55.939Z,45.30
2022-11-26T04:50:58.459Z,37.13
2022-11-26T04:54:03.363Z,42.17
2022-11-26T04:57:06.564Z,41.73
2022-11-26T05:00:09.565Z,44.10
2022-11-26T05:03:12.062Z,37.58
2022-11-26T05:06:14.426Z,32.78
2022-11-26T05:09:16.710Z,34.20
2022-11-26T05:12:18.984Z,48.07
2022-11-26T05:15:21.284Z,34.88
2022-11-26T05:18:23.529Z,35.33
2022-11-26T05:21:25.847Z,40.78
2022-11-26T05:24:28.244Z,45.77
2022-11-26T05:27:30.542Z,38.93
2022-11-26T05:30:33.308Z,36.42
2022-11-26T05:33:35.609Z,35.72
2022-11-26T05:36:37.897Z,41.22
2022-11-26T05:39:40.215Z,36.57
2022-11-26T05:42:43.466Z,34.67
2022-11-26T05:45:45.847Z,34.03
2022-11-26T05:48:48.121Z,39.35
2022-11-26T05:51:50.593Z,34.30
2022-11-26T05:54:52.842Z,33.40
2022-11-26T05:57:55.110Z,31.13
2022-11-26T06:00:57.470Z,33.22
2022-11-26T06:03:59.776Z,34.42
2022-11-26T06:07:02.139Z,40.22
2022-11-26T06:10:05.408Z,36.40
2022-11-26T06:13:07.795Z,37.13
2022-11-26T06:16:10.299Z,35.95
2022-11-26T06:19:12.752Z,33.97
2022-11-26T06:22:15.073Z,36.70
2022-11-26T06:25:17.668Z,40.27
2022-11-26T06:28:19.961Z,36.20
2022-11-26T06:31:22.276Z,43.20
2022-11-26T06:34:24.834Z,33.45
2022-11-26T06:37:27.221Z,35.97
2022-11-26T06:40:29.680Z,49.90
2022-11-26T06:43:32.320Z,56.43
2022-11-26T06:46:35.707Z,64.28
2022-11-26T06:49:38.468Z,64.40
2022-11-26T06:52:41.229Z,59.88
2022-11-26T06:55:43.691Z,46.53
2022-11-26T06:58:47.034Z,51.63
2022-11-26T07:01:49.608Z,49.80
2022-11-26T07:04:52.096Z,46.97
2022-11-26T07:07:54.465Z,40.00
2022-11-26T07:11:01.847Z,41.03
2022-11-26T07:14:04.473Z,47.00
2022-11-26T07:17:06.737Z,45.40
2022-11-26T07:20:09.292Z,44.90
2022-11-26T07:23:11.585Z,46.58
2022-11-26T07:26:15.558Z,46.60
2022-11-26T07:29:18.041Z,49.00
2022-11-26T07:32:20.455Z,59.05
2022-11-26T07:35:22.822Z,52.58
2022-11-26T07:38:25.110Z,45.88
2022-11-26T07:41:28.437Z,48.83
2022-11-26T07:44:31.153Z,46.33
2022-11-26T07:47:33.779Z,48.67
2022-11-26T07:50:36.143Z,49.90
2022-11-26T07:53:38.460Z,52.80
2022-11-26T07:56:40.770Z,49.83
2022-11-26T07:59:43.044Z,60.83
2022-11-26T08:02:45.484Z,47.17
2022-11-26T08:05:47.850Z,49.30
2022-11-26T08:08:50.844Z,48.17
2022-11-26T08:11:53.131Z,58.60
2022-11-26T08:14:55.399Z,53.60
2022-11-26T08:17:58.214Z,59.15
2022-11-26T08:21:01.010Z,56.25
2022-11-26T08:24:03.874Z,62.50
2022-11-26T08:27:06.178Z,51.27
2022-11-26T08:30:09.029Z,43.17
2022-11-26T08:33:11.991Z,48.80
2022-11-26T08:36:14.396Z,47.30
2022-11-26T08:39:18.974Z,50.25
2022-11-26T08:42:21.450Z,51.00
2022-11-26T08:45:24.138Z,48.30
2022-11-26T08:48:31.684Z,55.17
2022-11-26T08:51:34.781Z,53.15
2022-11-26T08:54:40.723Z,46.17
2022-11-26T08:57:46.897Z,52.80
2022-11-26T09:00:49.207Z,48.73
2022-11-26T09:03:52.856Z,48.83
2022-11-26T09:06:55.178Z,52.50
2022-11-26T09:09:57.417Z,51.78
2022-11-26T09:12:59.716Z,56.70
2022-11-26T09:16:02.183Z,49.20
2022-11-26T09:19:06.263Z,50.28
2022-11-26T09:22:08.571Z,51.08
2022-11-26T09:25:11.128Z,44.22
2022-11-26T09:28:13.482Z,40.30
2022-11-26T09:31:16.300Z,42.80
2022-11-26T09:34:19.023Z,45.33
2022-11-26T09:37:21.517Z,42.97
2022-11-26T09:40:32.875Z,42.78
2022-11-26T09:43:41.295Z,45.80
2022-11-26T09:47:19.068Z,44.13
2022-11-26T09:50:27.646Z,40.58
2022-11-26T09:53:37.059Z,43.38
2022-11-26T09:56:39.420Z,46.13
2022-11-26T09:59:42.109Z,46.40
2022-11-26T10:02:44.451Z,50.37
2022-11-26T10:05:57.056Z,46.60
2022-11-26T10:09:03.580Z,49.70
2022-11-26T10:13:16.781Z,49.75
2022-11-26T10:16:20.064Z,49.43
2022-11-26T10:19:50.113Z,47.50
2022-11-26T10:22:57.106Z,50.22
2022-11-26T10:26:21.141Z,55.22
2022-11-26T10:29:38.654Z,49.63
2022-11-26T10:32:41.923Z,52.70
2022-11-26T10:35:45.502Z,49.47
2022-11-26T10:38:47.893Z,59.53
2022-11-26T10:41:50.413Z,52.85
2022-11-26T10:44:53.442Z,51.17
2022-11-26T10:48:15.237Z,51.93
2022-11-26T10:51:28.699Z,50.33
2022-11-26T10:54:38.681Z,55.70
2022-11-26T10:57:44.595Z,48.65
2022-11-26T11:00:50.081Z,48.47
2022-11-26T11:04:10.769Z,51.27
2022-11-26T11:07:38.184Z,50.77
2022-11-26T11:10:53.976Z,38.22
2022-11-26T11:13:56.637Z,37.13
2022-11-26T11:16:59.018Z,34.65
2022-11-26T11:20:26.988Z,35.63
2022-11-26T11:23:52.645Z,30.50
2022-11-26T11:27:00.293Z,35.42
2022-11-26T11:30:03.095Z,34.10
2022-11-26T11:33:19.749Z,33.08
2022-11-26T11:36:27.935Z,31.47
2022-11-26T11:39:35.486Z,34.57
2022-11-26T11:42:40.571Z,33.83
2022-11-26T11:45:52.923Z,31.92
2022-11-26T11:48:59.484Z,33.55
2022-11-26T11:52:29.790Z,30.60
2022-11-26T11:55:32.018Z,29.57
2022-11-26T11:59:02.269Z,30.77
2022-11-26T12:02:27.211Z,32.75
2022-11-26T12:05:41.704Z,30.17
2022-11-26T12:09:19.444Z,38.57
2022-11-26T12:12:26.011Z,31.03
2022-11-26T12:15:35.856Z,35.30
2022-11-26T12:18:58.705Z,30.08
2022-11-26T12:22:11.083Z,32.92
2022-11-26T12:25:36.695Z,31.00
2022-11-26T12:28:51.356Z,31.27
2022-11-26T12:32:00.382Z,26.75
2022-11-26T12:35:20.731Z,41.25
2022-11-26T12:38:34.590Z,33.83
2022-11-26T12:41:47.807Z,35.80
2022-11-26T12:44:51.997Z,31.53
2022-11-26T12:47:59.439Z,31.55
2022-11-26T12:51:12.654Z,31.92
2022-11-26T12:54:25.630Z,35.25
2022-11-26T12:57:51.715Z,39.37
2022-11-26T13:00:55.103Z,38.93
2022-11-26T13:04:14.776Z,33.67
2022-11-26T13:07:23.049Z,36.92
2022-11-26T13:10:50.289Z,36.33
2022-11-26T13:14:09.916Z,31.53
2022-11-26T13:17:19.801Z,32.87
2022-11-26T13:20:40.866Z,34.80
2022-11-26T13:23:47.305Z,34.88
2022-11-26T13:26:58.746Z,33.47
2022-11-26T13:30:00.972Z,35.00
2022-11-26T13:33:22.268Z,36.27
2022-11-26T13:36:59.836Z,37.45
2022-11-26T13:40:20.849Z,37.38
2022-11-26T13:43:44.997Z,41.28
2022-11-26T13:47:11.578Z,39.47
2022-11-26T13:50:22.896Z,40.23
2022-11-26T13:53:36.855Z,39.55
2022-11-26T13:56:40.828Z,52.42
2022-11-26T13:59:52.117Z,57.22
2022-11-26T14:02:55.250Z,42.40
2022-11-26T14:06:02.432Z,38.40
2022-11-26T14:09:42.317Z,41.13
2022-11-26T14:13:03.235Z,34.47
2022-11-26T14:16:09.604Z,37.17
2022-11-26T14:19:11.958Z,36.73
2022-11-26T14:22:23.120Z,36.67
2022-11-26T14:25:39.248Z,34.65
2022-11-26T14:28:41.721Z,34.03
2022-11-26T14:31:52.258Z,41.85
2022-11-26T14:34:56.587Z,40.53
2022-11-26T14:38:00.795Z,41.80
2022-11-26T14:41:03.303Z,53.22
2022-11-26T14:44:07.347Z,47.05
2022-11-26T14:47:20.501Z,57.33
2022-11-26T14:50:24.438Z,45.57
2022-11-26T14:53:30.035Z,33.97
2022-11-26T14:56:32.311Z,30.52
2022-11-26T14:59:34.612Z,23.73
2022-11-26T15:02:42.776Z,25.88
2022-11-26T15:05:45.411Z,25.47
2022-11-26T15:08:47.870Z,22.90
2022-11-26T15:12:12.344Z,23.10
2022-11-26T15:15:21.461Z,21.90
2022-11-26T15:18:30.100Z,23.30
2022-11-26T15:21:33.737Z,25.73
2022-11-26T15:24:36.528Z,23.47
2022-11-26T15:27:41.266Z,23.80
2022-11-26T15:30:54.257Z,21.17
2022-11-26T15:33:56.634Z,23.45
2022-11-26T15:36:59.158Z,25.03
2022-11-26T15:40:21.600Z,21.87
2022-11-26T15:43:31.237Z,22.20
2022-11-26T15:46:35.920Z,26.60
2022-11-26T15:49:40.607Z,28.10
2022-11-26T15:52:47.735Z,22.23
2022-11-26T15:55:50.419Z,27.27
2022-11-26T15:58:56.237Z,33.63
2022-11-26T16:02:04.758Z,25.75
2022-11-26T16:05:23.088Z,24.70
2022-11-26T16:08:28.228Z,24.97
2022-11-26T16:11:34.425Z,26.37
2022-11-26T16:14:38.908Z,23.88
2022-11-26T16:17:41.374Z,28.40
2022-11-26T16:20:43.840Z,28.90
2022-11-26T16:23:53.419Z,24.77
2022-11-26T16:27:00.910Z,28.17
2022-11-26T16:30:11.165Z,26.52
2022-11-26T16:33:13.466Z,25.77
2022-11-26T16:36:19.783Z,27.13
2022-11-26T16:39:22.057Z,26.77
2022-11-26T16:42:24.333Z,25.90
2022-11-26T16:45:26.632Z,33.00
2022-11-26T16:48:28.993Z,28.88
2022-11-26T16:51:31.327Z,29.95
2022-11-26T16:54:33.708Z,30.00
2022-11-26T16:57:36.037Z,28.47
2022-11-26T17:00:39.769Z,30.58
2022-11-26T17:03:43.131Z,30.05
2022-11-26T17:06:46.436Z,29.00
2022-11-26T17:09:49.016Z,28.90
2022-11-26T17:12:51.276Z,31.47
2022-11-26T17:15:53.664Z,29.27
2022-11-26T17:18:56.077Z,30.83
2022-11-26T17:21:58.359Z,32.35
2022-11-26T17:25:00.667Z,33.47
2022-11-26T17:28:03.183Z,30.60
2022-11-26T17:31:05.723Z,33.90
2022-11-26T17:34:08.076Z,25.45
2022-11-26T17:37:15.583Z,28.83
2022-11-26T17:40:22.437Z,31.20
2022-11-26T17:43:24.720Z,32.97
2022-11-26T17:46:27.103Z,29.00
2022-11-26T17:49:29.405Z,28.58
2022-11-26T17:52:31.801Z,30.58
2022-11-26T17:55:34.127Z,31.33
2022-11-26T17:58:36.427Z,26.60
2022-11-26T18:01:38.871Z,27.70
2022-11-26T18:04:41.292Z,31.00
2022-11-26T18:07:43.669Z,30.10
2022-11-26T18:10:46.930Z,33.60
2022-11-26T18:13:49.187Z,36.23
2022-11-26T18:16:52.267Z,51.75
2022-11-26T18:19:54.787Z,42.22
2022-11-26T18:22:59.337Z,37.88
2022-11-26T18:26:01.639Z,41.33
2022-11-26T18:29:04.214Z,36.53
2022-11-26T18:32:06.516Z,38.15
2022-11-26T18:35:09.584Z,39.75
2022-11-26T18:38:12.326Z,38.78
2022-11-26T18:41:14.695Z,41.73
2022-11-26T18:44:17.108Z,37.73
2022-11-26T18:47:19.431Z,33.03
2022-11-26T18:50:21.703Z,36.78
2022-11-26T18:53:24.015Z,32.15
2022-11-26T18:56:26.897Z,39.67
2022-11-26T18:59:29.324Z,36.37
2022-11-26T19:02:31.701Z,42.65
2022-11-26T19:05:34.034Z,40.00
2022-11-26T19:08:38.893Z,50.60
2022-11-26T19:11:41.244Z,50.53
2022-11-26T19:14:43.633Z,52.20
2022-11-26T19:17:46.733Z,48.17
2022-11-26T19:20:51.263Z,47.95
2022-11-26T19:23:55.189Z,44.42
2022-11-26T19:26:57.708Z,51.77
2022-11-26T19:29:59.927Z,42.63
2022-11-26T19:33:02.792Z,45.20
2022-11-26T19:36:07.502Z,61.22
2022-11-26T19:39:09.860Z,57.80
2022-11-26T19:42:12.141Z,54.93
2022-11-26T19:45:14.424Z,59.07
2022-11-26T19:48:16.699Z,60.90
2022-11-26T19:51:21.436Z,61.35
2022-11-26T19:54:23.845Z,66.32
2022-11-26T19:57:26.158Z,71.40
2022-11-26T20:00:28.427Z,74.13
2022-11-26T20:03:35.787Z,76.82
2022-11-26T20:06:39.624Z,76.95
2022-11-26T20:09:42.009Z,84.35
2022-11-26T20:12:44.381Z,75.73
2022-11-26T20:15:48.445Z,67.60
2022-11-26T20:18:50.945Z,80.22
2022-11-26T20:21:53.318Z,70.53
2022-11-26T20:24:55.547Z,65.03
2022-11-26T20:28:01.699Z,77.13
2022-11-26T20:31:05.122Z,71.57
2022-11-26T20:34:07.555Z,82.25
2022-11-26T20:37:09.825Z,73.55
2022-11-26T20:40:12.275Z,64.80
2022-11-26T20:43:14.588Z,64.47
2022-11-26T20:46:16.862Z,69.67
2022-11-26T20:49:19.270Z,60.97
2022-11-26T20:52:24.230Z,65.22
2022-11-26T20:55:27.012Z,65.00
2022-11-26T20:58:29.547Z,66.27
2022-11-26T21:01:32.177Z,64.43
2022-11-26T21:04:34.520Z,59.20
2022-11-26T21:07:36.884Z,58.40
2022-11-26T21:10:40.555Z,48.05
2022-11-26T21:13:43.521Z,49.37
2022-11-26T21:16:46.509Z,51.57
2022-11-26T21:19:48.792Z,55.72
2022-11-26T21:22:51.114Z,52.08
2022-11-26T21:25:53.508Z,48.75
2022-11-26T21:28:57.937Z,46.23
2022-11-26T21:32:00.462Z,46.37
2022-11-26T21:35:02.737Z,46.22
2022-11-26T21:38:05.910Z,45.78
2022-11-26T21:41:12.475Z,41.63
2022-11-26T21:44:14.847Z,43.43
2022-11-26T21:47:17.069Z,39.73
2022-11-26T21:50:19.804Z,43.78
2022-11-26T21:53:22.894Z,47.80
2022-11-26T21:56:30.791Z,46.78
2022-11-26T21:59:33.167Z,45.03
2022-11-26T22:02:35.625Z,48.13
2022-11-26T22:05:38.192Z,45.70
2022-11-26T22:08:41.223Z,50.72
2022-11-26T22:11:45.198Z,43.97
2022-11-26T22:14:47.498Z,47.47
2022-11-26T22:17:49.802Z,42.50
2022-11-26T22:20:52.857Z,41.03
2022-11-26T22:23:55.775Z,41.47
2022-11-26T22:26:59.395Z,45.80
2022-11-26T22:30:03.217Z,48.73
2022-11-26T22:33:05.658Z,46.00
2022-11-26T22:36:08.337Z,48.55
2022-11-26T22:39:13.418Z,43.13
2022-11-26T22:42:15.997Z,42.78
2022-11-26T22:45:18.383Z,46.53
2022-11-26T22:48:21.013Z,37.93
2022-11-26T22:51:24.399Z,43.15
2022-11-26T22:54:26.695Z,42.63
2022-11-26T22:57:28.937Z,42.90
2022-11-26T23:00:51.497Z,39.80
2022-11-26T23:03:54.750Z,39.50
2022-11-26T23:06:57.032Z,40.95
2022-11-26T23:09:59.359Z,38.25
2022-11-26T23:13:01.845Z,40.28
2022-11-26T23:16:07.563Z,37.73
2022-11-26T23:19:12.914Z,38.00
2022-11-26T23:22:15.213Z,41.67
2022-11-26T23:25:17.641Z,37.17
2022-11-26T23:28:19.928Z,40.78
2022-11-26T23:31:25.033Z,39.77
2022-11-26T23:34:27.752Z,41.90
2022-11-26T23:37:30.244Z,41.75
2022-11-26T23:40:32.508Z,39.00
2022-11-26T23:43:36.531Z,41.75
2022-11-26T23:46:38.941Z,42.33
2022-11-26T23:49:41.572Z,43.70
2022-11-26T23:52:44.147Z,46.97
2022-11-26T23:55:46.529Z,48.65
2022-11-26T23:58:53.765Z,48.65
